Minerva, OH

5:14 AM EST on February 11, 2016 (GMT -0500)
OHDOT | | Change Station
CLOSE
Current Station
Personal Weather Station
Location: Minerva, OH
Elevation: 1042 ft
Nearby Weather Stations

Elev 1042 ft 40.73 °N, 81.10 °W | Updated 5 hours ago

Light Snow
Light Snow
15.0 °F
Feels Like 5 °F
N
7.0
Wind Variable Wind from WSW
Gusts 0.0 mph

Today
High -- | Low -- °F
--% Chance of Precip.
Yesterday
High -- | Low -- °F
Precip. -- in
Pressure 30.01 in
Visibility 1.2 miles
Clouds Overcast 1500 ft
Windchill 5 °F
Dew Point 10.0 °F
Humidity 79%
Rainfall in
Snow Depth Not available.
7:24 AM 5:53 PM
Waxing Crescent, 11% visible
SPECI KCAK 111009Z 28011KT 1 1/4SM -SN OVC015 M12/M14 A3001 RMK AO2 P0000 T11171144 $
Pressure 30.01 in
Visibility 1.2 miles
Clouds Overcast 1500 ft
Windchill 5 °F
Dew Point 10.0 °F
Humidity 79%
Rainfall in
Snow Depth Not available.
7:24 AM 5:53 PM
Waxing Crescent, 11% visible
SPECI KCAK 111009Z 28011KT 1 1/4SM -SN OVC015 M12/M14 A3001 RMK AO2 P0000 T11171144 $

10-Day Weather Forecast

Almanac

Astronomy

Feb. 11, 2016 Rise Set
Actual Time
Civil Twilight
Nautical Twilight
Astronomical Twilight
Moon
Length of Visible Light
Length of Day
Tomorrow will be .
, % of the Moon is Illuminated

Today's Extremes

State Highs State Lows

Community

WunderPhotos

Upload Photos

1,892,030 photos uploaded!

WunderBlog® & News

Nearby

Air Quality

  Air Quality AQ Index Pollutant
Not available.

Snow Depth

Station Depth Elevation

Earthquake Activity

City Distance Mag. Time & Date
Minimum magnitude displayed is 2.5.

Coastal Water Temperatures

Place Temperature

Stations

Nearby Weather Stations

Station Location Temp. Windchill Dew Point Humidity Wind Precip. Elev Updated Type
                   

Watches & Warnings

There are currently no watches in effect.